aviador You're here:

YWGT Decoded Metar

WANGARATTA ARP in _UNIDENTIFIED
Report Time2018-01-22 01:00:00
UTC Time2018-01-22 01:53:51
Flight Rules vfr VFR
Wind090° at 05 kt
W.Decomp.*RWY 09: 4.9 kt HW 1 kt LCW
RWY 36: 1.0 kt HW 4.9 kt RCW
W.Rank090° ranks 32
Current wind is above 090° avg. (4.0)
Visibility9999 m
Phenomena:N/A
Clouds:N/A
Expected CloudBase > 9,600 ft AGL from Temp-Dew spread
CeilingNone
Temp34°C (ISA +20)
Dew Point10°C (23% RH)
Heat Index32.3°C
AAT32.2°C
QNH1007 hPa
Density Alt3,143 ft
Elevation502 ft
Report Wrong Elevation
Raw Report
YWGT 220100Z AUTO 09005KT 060V150 9999 // NCD 34/10 Q1007=

Extra information for YWGT:More info

Metar Taf Metar & Taf Last 4 Metars F.Rules Stats Wind Profile Meteogram Temp Stats Airport Information Weather charts Add Link Nearby VenuesMetar ALERT Operation Metar Decoded Social comments